TAF Text Data
IDs:
Format:
Raw Decoded Include METAR

Data at: 0803 UTC 07 Dec 2022

KMPV 070530Z 0706/0806 18008G14KT P6SM -RA OVC016 WS020/16045KT
  FM071200 18006KT P6SM VCSH OVC022 WS020/17040KT
  FM071800 VRB03KT P6SM OVC012
  FM080100 00000KT P6SM VCSH SCT004 OVC008